sensor_id;sensor_type;location;lat;lon;timestamp;P1;durP1;ratioP1;P2;durP2;ratioP2
69822;SDS011;57119;52.516;13.508;2022-09-09T00:02:05;17.83;;;10.00;;
69822;SDS011;57119;52.516;13.508;2022-09-09T00:05:31;18.67;;;10.63;;
69822;SDS011;57119;52.516;13.508;2022-09-09T00:07:48;17.40;;;9.27;;
69822;SDS011;57119;52.516;13.508;2022-09-09T00:15:20;15.30;;;9.98;;
69822;SDS011;57119;52.516;13.508;2022-09-09T00:20:32;18.30;;;11.35;;
69822;SDS011;57119;52.516;13.508;2022-09-09T00:23:14;18.27;;;11.10;;
69822;SDS011;57119;52.516;13.508;2022-09-09T00:25:58;19.27;;;10.55;;
69822;SDS011;57119;52.516;13.508;2022-09-09T00:28:25;21.42;;;11.75;;
69822;SDS011;57119;52.516;13.508;2022-09-09T00:30:55;19.05;;;10.93;;
69822;SDS011;57119;52.516;13.508;2022-09-09T00:33:22;18.05;;;10.77;;
69822;SDS011;57119;52.516;13.508;2022-09-09T00:35:51;19.97;;;11.73;;
69822;SDS011;57119;52.516;13.508;2022-09-09T00:38:23;19.75;;;11.23;;
69822;SDS011;57119;52.516;13.508;2022-09-09T00:40:53;17.65;;;10.90;;
69822;SDS011;57119;52.516;13.508;2022-09-09T00:43:28;20.40;;;10.95;;
69822;SDS011;57119;52.516;13.508;2022-09-09T00:45:59;19.75;;;11.32;;
69822;SDS011;57119;52.516;13.508;2022-09-09T00:48:46;18.23;;;10.90;;
69822;SDS011;57119;52.516;13.508;2022-09-09T00:59:35;17.88;;;10.65;;
69822;SDS011;57119;52.516;13.508;2022-09-09T01:02:16;17.63;;;11.07;;
69822;SDS011;57119;52.516;13.508;2022-09-09T01:04:50;18.17;;;10.85;;
69822;SDS011;57119;52.516;13.508;2022-09-09T01:07:18;21.47;;;11.63;;
69822;SDS011;57119;52.516;13.508;2022-09-09T01:09:46;17.33;;;10.20;;
69822;SDS011;57119;52.516;13.508;2022-09-09T01:12:23;20.33;;;11.38;;
69822;SDS011;57119;52.516;13.508;2022-09-09T01:15:12;16.83;;;9.77;;
69822;SDS011;57119;52.516;13.508;2022-09-09T01:23:04;20.10;;;9.30;;
69822;SDS011;57119;52.516;13.508;2022-09-09T01:28:09;16.60;;;10.00;;
69822;SDS011;57119;52.516;13.508;2022-09-09T01:30:39;15.85;;;8.68;;
69822;SDS011;57119;52.516;13.508;2022-09-09T01:33:12;16.58;;;9.30;;
69822;SDS011;57119;52.516;13.508;2022-09-09T01:38:13;15.90;;;9.45;;
69822;SDS011;57119;52.516;13.508;2022-09-09T01:40:39;19.02;;;10.02;;
69822;SDS011;57119;52.516;13.508;2022-09-09T01:43:05;17.65;;;9.90;;
69822;SDS011;57119;52.516;13.508;2022-09-09T01:45:32;18.37;;;10.00;;
69822;SDS011;57119;52.516;13.508;2022-09-09T01:47:58;18.90;;;10.32;;
69822;SDS011;57119;52.516;13.508;2022-09-09T01:50:24;17.20;;;9.80;;
69822;SDS011;57119;52.516;13.508;2022-09-09T01:52:52;20.13;;;10.57;;
69822;SDS011;57119;52.516;13.508;2022-09-09T01:55:23;16.23;;;10.18;;
69822;SDS011;57119;52.516;13.508;2022-09-09T01:58:11;15.27;;;9.50;;
69822;SDS011;57119;52.516;13.508;2022-09-09T02:01:12;17.63;;;9.55;;
69822;SDS011;57119;52.516;13.508;2022-09-09T02:03:47;18.25;;;9.82;;
69822;SDS011;57119;52.516;13.508;2022-09-09T02:06:27;16.33;;;9.17;;
69822;SDS011;57119;52.516;13.508;2022-09-09T02:08:55;16.08;;;9.60;;
69822;SDS011;57119;52.516;13.508;2022-09-09T02:11:23;17.45;;;10.02;;
69822;SDS011;57119;52.516;13.508;2022-09-09T02:13:54;19.15;;;10.23;;
69822;SDS011;57119;52.516;13.508;2022-09-09T02:16:26;17.55;;;9.90;;
69822;SDS011;57119;52.516;13.508;2022-09-09T02:19:14;18.93;;;10.20;;
69822;SDS011;57119;52.516;13.508;2022-09-09T02:21:48;19.95;;;10.50;;
69822;SDS011;57119;52.516;13.508;2022-09-09T02:24:15;19.58;;;10.07;;
69822;SDS011;57119;52.516;13.508;2022-09-09T02:26:41;18.13;;;9.98;;
69822;SDS011;57119;52.516;13.508;2022-09-09T02:29:14;15.73;;;9.02;;
69822;SDS011;57119;52.516;13.508;2022-09-09T02:31:44;18.53;;;9.60;;
69822;SDS011;57119;52.516;13.508;2022-09-09T02:34:11;17.48;;;9.25;;
69822;SDS011;57119;52.516;13.508;2022-09-09T02:36:40;15.68;;;9.63;;
69822;SDS011;57119;52.516;13.508;2022-09-09T02:39:08;18.80;;;9.70;;
69822;SDS011;57119;52.516;13.508;2022-09-09T02:41:36;15.63;;;8.68;;
69822;SDS011;57119;52.516;13.508;2022-09-09T02:44:10;17.37;;;8.53;;
69822;SDS011;57119;52.516;13.508;2022-09-09T02:49:43;16.50;;;9.35;;
69822;SDS011;57119;52.516;13.508;2022-09-09T02:52:30;18.90;;;9.20;;
69822;SDS011;57119;52.516;13.508;2022-09-09T02:55:16;21.60;;;10.85;;
69822;SDS011;57119;52.516;13.508;2022-09-09T02:57:48;18.60;;;10.80;;
69822;SDS011;57119;52.516;13.508;2022-09-09T03:00:15;18.00;;;9.50;;
69822;SDS011;57119;52.516;13.508;2022-09-09T03:02:41;16.60;;;9.03;;
69822;SDS011;57119;52.516;13.508;2022-09-09T03:05:07;18.27;;;9.38;;
69822;SDS011;57119;52.516;13.508;2022-09-09T03:07:32;16.38;;;8.50;;
69822;SDS011;57119;52.516;13.508;2022-09-09T03:09:58;18.83;;;9.47;;
69822;SDS011;57119;52.516;13.508;2022-09-09T03:12:23;21.80;;;10.30;;
69822;SDS011;57119;52.516;13.508;2022-09-09T03:14:49;15.73;;;8.65;;
69822;SDS011;57119;52.516;13.508;2022-09-09T03:17:14;20.07;;;9.87;;
69822;SDS011;57119;52.516;13.508;2022-09-09T03:19:40;19.60;;;10.53;;
69822;SDS011;57119;52.516;13.508;2022-09-09T03:22:06;16.95;;;8.65;;
69822;SDS011;57119;52.516;13.508;2022-09-09T03:24:31;18.10;;;9.37;;
69822;SDS011;57119;52.516;13.508;2022-09-09T03:26:56;21.77;;;10.17;;
69822;SDS011;57119;52.516;13.508;2022-09-09T03:29:22;20.88;;;10.38;;
69822;SDS011;57119;52.516;13.508;2022-09-09T03:31:47;20.33;;;9.93;;
69822;SDS011;57119;52.516;13.508;2022-09-09T03:34:12;20.10;;;9.10;;
69822;SDS011;57119;52.516;13.508;2022-09-09T03:36:38;17.23;;;8.40;;
69822;SDS011;57119;52.516;13.508;2022-09-09T03:39:06;14.93;;;8.15;;
69822;SDS011;57119;52.516;13.508;2022-09-09T03:41:31;13.70;;;8.20;;
69822;SDS011;57119;52.516;13.508;2022-09-09T03:43:57;14.77;;;7.63;;
69822;SDS011;57119;52.516;13.508;2022-09-09T03:46:23;16.50;;;7.87;;
69822;SDS011;57119;52.516;13.508;2022-09-09T03:48:50;15.20;;;8.07;;
69822;SDS011;57119;52.516;13.508;2022-09-09T03:51:17;13.45;;;7.72;;
69822;SDS011;57119;52.516;13.508;2022-09-09T03:53:43;16.08;;;9.32;;
69822;SDS011;57119;52.516;13.508;2022-09-09T03:56:09;14.50;;;8.73;;
69822;SDS011;57119;52.516;13.508;2022-09-09T03:58:34;16.13;;;8.15;;
69822;SDS011;57119;52.516;13.508;2022-09-09T04:01:05;14.23;;;8.23;;
69822;SDS011;57119;52.516;13.508;2022-09-09T04:03:34;16.27;;;7.80;;
69822;SDS011;57119;52.516;13.508;2022-09-09T04:06:00;14.38;;;7.75;;
69822;SDS011;57119;52.516;13.508;2022-09-09T04:08:28;13.73;;;8.07;;
69822;SDS011;57119;52.516;13.508;2022-09-09T04:10:56;14.53;;;7.97;;
69822;SDS011;57119;52.516;13.508;2022-09-09T04:13:22;16.23;;;8.93;;
69822;SDS011;57119;52.516;13.508;2022-09-09T04:15:52;16.92;;;8.38;;
69822;SDS011;57119;52.516;13.508;2022-09-09T04:18:21;13.68;;;7.78;;
69822;SDS011;57119;52.516;13.508;2022-09-09T04:20:48;17.80;;;8.83;;
69822;SDS011;57119;52.516;13.508;2022-09-09T04:23:14;13.60;;;7.72;;
69822;SDS011;57119;52.516;13.508;2022-09-09T04:25:50;14.60;;;8.13;;
69822;SDS011;57119;52.516;13.508;2022-09-09T04:28:17;14.38;;;8.02;;
69822;SDS011;57119;52.516;13.508;2022-09-09T04:30:44;14.43;;;8.02;;
69822;SDS011;57119;52.516;13.508;2022-09-09T04:33:10;15.70;;;8.23;;
69822;SDS011;57119;52.516;13.508;2022-09-09T04:35:36;14.68;;;8.07;;
69822;SDS011;57119;52.516;13.508;2022-09-09T04:38:02;14.80;;;8.80;;
69822;SDS011;57119;52.516;13.508;2022-09-09T04:40:28;19.70;;;10.90;;
69822;SDS011;57119;52.516;13.508;2022-09-09T04:42:55;16.75;;;9.23;;
69822;SDS011;57119;52.516;13.508;2022-09-09T04:45:23;17.50;;;9.07;;
69822;SDS011;57119;52.516;13.508;2022-09-09T04:47:48;16.40;;;9.13;;
69822;SDS011;57119;52.516;13.508;2022-09-09T04:50:14;15.15;;;8.20;;
69822;SDS011;57119;52.516;13.508;2022-09-09T04:52:39;15.43;;;8.20;;
69822;SDS011;57119;52.516;13.508;2022-09-09T04:55:06;14.50;;;7.80;;
69822;SDS011;57119;52.516;13.508;2022-09-09T04:57:32;15.73;;;8.80;;
69822;SDS011;57119;52.516;13.508;2022-09-09T04:59:58;16.00;;;9.10;;
69822;SDS011;57119;52.516;13.508;2022-09-09T05:02:24;15.93;;;8.60;;
69822;SDS011;57119;52.516;13.508;2022-09-09T05:04:50;20.15;;;9.85;;
69822;SDS011;57119;52.516;13.508;2022-09-09T05:07:16;14.50;;;8.80;;
69822;SDS011;57119;52.516;13.508;2022-09-09T05:09:41;15.63;;;9.00;;
69822;SDS011;57119;52.516;13.508;2022-09-09T05:12:06;14.37;;;8.67;;
69822;SDS011;57119;52.516;13.508;2022-09-09T05:14:33;15.95;;;8.77;;
69822;SDS011;57119;52.516;13.508;2022-09-09T05:16:58;15.57;;;8.23;;
69822;SDS011;57119;52.516;13.508;2022-09-09T05:19:23;15.37;;;9.10;;
69822;SDS011;57119;52.516;13.508;2022-09-09T05:21:49;15.00;;;8.93;;
69822;SDS011;57119;52.516;13.508;2022-09-09T05:24:15;13.83;;;8.40;;
69822;SDS011;57119;52.516;13.508;2022-09-09T05:26:40;15.30;;;7.80;;
69822;SDS011;57119;52.516;13.508;2022-09-09T05:29:06;13.40;;;8.17;;
69822;SDS011;57119;52.516;13.508;2022-09-09T05:31:31;12.87;;;7.80;;
69822;SDS011;57119;52.516;13.508;2022-09-09T05:33:57;12.20;;;7.03;;
69822;SDS011;57119;52.516;13.508;2022-09-09T05:36:23;11.80;;;7.22;;
69822;SDS011;57119;52.516;13.508;2022-09-09T05:38:49;11.93;;;7.30;;
69822;SDS011;57119;52.516;13.508;2022-09-09T05:41:16;11.18;;;7.47;;
69822;SDS011;57119;52.516;13.508;2022-09-09T05:43:42;14.20;;;6.57;;
69822;SDS011;57119;52.516;13.508;2022-09-09T05:46:19;11.82;;;7.30;;
69822;SDS011;57119;52.516;13.508;2022-09-09T05:48:46;11.75;;;7.03;;
69822;SDS011;57119;52.516;13.508;2022-09-09T05:51:14;10.55;;;6.82;;
69822;SDS011;57119;52.516;13.508;2022-09-09T05:53:42;14.98;;;8.30;;
69822;SDS011;57119;52.516;13.508;2022-09-09T05:56:09;11.80;;;7.10;;
69822;SDS011;57119;52.516;13.508;2022-09-09T05:58:36;13.15;;;7.70;;
69822;SDS011;57119;52.516;13.508;2022-09-09T06:03:29;14.13;;;7.63;;
69822;SDS011;57119;52.516;13.508;2022-09-09T06:05:58;15.40;;;7.17;;
69822;SDS011;57119;52.516;13.508;2022-09-09T06:08:24;11.18;;;6.82;;
69822;SDS011;57119;52.516;13.508;2022-09-09T06:10:50;11.23;;;6.53;;
69822;SDS011;57119;52.516;13.508;2022-09-09T06:13:16;14.60;;;6.85;;
69822;SDS011;57119;52.516;13.508;2022-09-09T06:15:49;9.03;;;5.60;;
69822;SDS011;57119;52.516;13.508;2022-09-09T06:18:17;13.25;;;6.55;;
69822;SDS011;57119;52.516;13.508;2022-09-09T06:20:53;9.52;;;5.57;;
69822;SDS011;57119;52.516;13.508;2022-09-09T06:23:19;8.95;;;5.47;;
69822;SDS011;57119;52.516;13.508;2022-09-09T06:25:45;8.13;;;5.23;;
69822;SDS011;57119;52.516;13.508;2022-09-09T06:28:10;9.07;;;4.60;;
69822;SDS011;57119;52.516;13.508;2022-09-09T06:30:36;9.97;;;6.30;;
69822;SDS011;57119;52.516;13.508;2022-09-09T06:33:01;9.13;;;4.40;;
69822;SDS011;57119;52.516;13.508;2022-09-09T06:35:27;8.00;;;4.13;;
69822;SDS011;57119;52.516;13.508;2022-09-09T06:37:53;8.33;;;4.40;;
69822;SDS011;57119;52.516;13.508;2022-09-09T06:40:19;8.32;;;3.95;;
69822;SDS011;57119;52.516;13.508;2022-09-09T06:42:44;8.10;;;4.00;;
69822;SDS011;57119;52.516;13.508;2022-09-09T06:45:09;7.53;;;3.77;;
69822;SDS011;57119;52.516;13.508;2022-09-09T06:47:35;6.67;;;3.43;;
69822;SDS011;57119;52.516;13.508;2022-09-09T06:50:00;6.43;;;3.20;;
69822;SDS011;57119;52.516;13.508;2022-09-09T06:52:26;7.93;;;3.43;;
69822;SDS011;57119;52.516;13.508;2022-09-09T06:54:52;8.60;;;3.60;;
69822;SDS011;57119;52.516;13.508;2022-09-09T06:57:18;8.53;;;3.40;;
69822;SDS011;57119;52.516;13.508;2022-09-09T06:59:43;8.05;;;2.67;;
69822;SDS011;57119;52.516;13.508;2022-09-09T07:02:09;9.03;;;3.60;;
69822;SDS011;57119;52.516;13.508;2022-09-09T07:04:35;9.18;;;3.38;;
69822;SDS011;57119;52.516;13.508;2022-09-09T07:07:01;8.17;;;3.60;;
69822;SDS011;57119;52.516;13.508;2022-09-09T07:09:27;6.38;;;3.20;;
69822;SDS011;57119;52.516;13.508;2022-09-09T07:11:54;7.53;;;3.60;;
69822;SDS011;57119;52.516;13.508;2022-09-09T07:14:20;8.35;;;3.33;;
69822;SDS011;57119;52.516;13.508;2022-09-09T07:16:47;7.28;;;3.20;;
69822;SDS011;57119;52.516;13.508;2022-09-09T07:19:13;7.63;;;2.80;;
69822;SDS011;57119;52.516;13.508;2022-09-09T07:21:39;6.65;;;3.00;;
69822;SDS011;57119;52.516;13.508;2022-09-09T07:24:07;6.53;;;2.83;;
69822;SDS011;57119;52.516;13.508;2022-09-09T07:26:35;7.90;;;2.50;;
69822;SDS011;57119;52.516;13.508;2022-09-09T07:29:01;7.77;;;3.17;;
69822;SDS011;57119;52.516;13.508;2022-09-09T07:31:27;11.57;;;3.35;;
69822;SDS011;57119;52.516;13.508;2022-09-09T07:33:55;7.63;;;2.90;;
69822;SDS011;57119;52.516;13.508;2022-09-09T07:36:25;8.32;;;2.85;;
69822;SDS011;57119;52.516;13.508;2022-09-09T07:38:53;5.82;;;2.67;;
69822;SDS011;57119;52.516;13.508;2022-09-09T07:41:22;6.57;;;2.60;;
69822;SDS011;57119;52.516;13.508;2022-09-09T07:43:49;7.40;;;2.67;;
69822;SDS011;57119;52.516;13.508;2022-09-09T07:46:16;6.40;;;2.97;;
69822;SDS011;57119;52.516;13.508;2022-09-09T07:48:44;6.95;;;3.17;;
69822;SDS011;57119;52.516;13.508;2022-09-09T07:51:12;6.57;;;2.75;;
69822;SDS011;57119;52.516;13.508;2022-09-09T07:53:42;6.32;;;3.10;;
69822;SDS011;57119;52.516;13.508;2022-09-09T07:56:08;6.45;;;2.80;;
69822;SDS011;57119;52.516;13.508;2022-09-09T07:58:36;9.63;;;3.37;;
69822;SDS011;57119;52.516;13.508;2022-09-09T08:01:09;6.00;;;2.50;;
69822;SDS011;57119;52.516;13.508;2022-09-09T08:03:37;6.97;;;2.95;;
69822;SDS011;57119;52.516;13.508;2022-09-09T08:06:07;7.32;;;2.65;;
69822;SDS011;57119;52.516;13.508;2022-09-09T08:08:34;5.40;;;2.80;;
69822;SDS011;57119;52.516;13.508;2022-09-09T08:11:05;6.65;;;2.97;;
69822;SDS011;57119;52.516;13.508;2022-09-09T08:13:36;6.63;;;2.70;;
69822;SDS011;57119;52.516;13.508;2022-09-09T08:16:05;6.65;;;2.60;;
69822;SDS011;57119;52.516;13.508;2022-09-09T08:18:38;7.85;;;3.35;;
69822;SDS011;57119;52.516;13.508;2022-09-09T08:21:05;9.57;;;3.17;;
69822;SDS011;57119;52.516;13.508;2022-09-09T08:23:36;5.32;;;2.65;;
69822;SDS011;57119;52.516;13.508;2022-09-09T08:26:05;6.68;;;2.47;;
69822;SDS011;57119;52.516;13.508;2022-09-09T08:28:34;5.15;;;2.45;;
69822;SDS011;57119;52.516;13.508;2022-09-09T08:31:08;7.97;;;2.37;;
69822;SDS011;57119;52.516;13.508;2022-09-09T08:33:39;7.13;;;2.90;;
69822;SDS011;57119;52.516;13.508;2022-09-09T08:36:06;5.50;;;2.40;;
69822;SDS011;57119;52.516;13.508;2022-09-09T08:38:33;5.85;;;2.50;;
69822;SDS011;57119;52.516;13.508;2022-09-09T08:41:13;9.55;;;2.80;;
69822;SDS011;57119;52.516;13.508;2022-09-09T08:44:04;7.77;;;2.60;;
69822;SDS011;57119;52.516;13.508;2022-09-09T08:46:42;7.22;;;2.53;;
69822;SDS011;57119;52.516;13.508;2022-09-09T08:51:57;5.93;;;1.90;;
69822;SDS011;57119;52.516;13.508;2022-09-09T08:54:23;6.27;;;2.70;;
69822;SDS011;57119;52.516;13.508;2022-09-09T08:56:50;6.82;;;2.70;;
69822;SDS011;57119;52.516;13.508;2022-09-09T08:59:17;8.75;;;2.78;;
69822;SDS011;57119;52.516;13.508;2022-09-09T09:04:55;8.57;;;2.37;;
69822;SDS011;57119;52.516;13.508;2022-09-09T09:07:31;7.85;;;2.38;;
69822;SDS011;57119;52.516;13.508;2022-09-09T09:10:04;6.18;;;2.70;;
69822;SDS011;57119;52.516;13.508;2022-09-09T09:12:35;6.53;;;2.50;;
69822;SDS011;57119;52.516;13.508;2022-09-09T09:15:19;6.30;;;2.63;;
69822;SDS011;57119;52.516;13.508;2022-09-09T09:17:48;8.73;;;2.83;;
69822;SDS011;57119;52.516;13.508;2022-09-09T09:20:14;7.07;;;2.33;;
69822;SDS011;57119;52.516;13.508;2022-09-09T09:22:46;5.90;;;2.60;;
69822;SDS011;57119;52.516;13.508;2022-09-09T09:25:23;8.13;;;2.23;;
69822;SDS011;57119;52.516;13.508;2022-09-09T09:30:50;6.57;;;2.80;;
69822;SDS011;57119;52.516;13.508;2022-09-09T09:36:06;7.28;;;3.13;;
69822;SDS011;57119;52.516;13.508;2022-09-09T09:38:33;8.20;;;3.20;;
69822;SDS011;57119;52.516;13.508;2022-09-09T09:41:00;6.28;;;3.03;;
69822;SDS011;57119;52.516;13.508;2022-09-09T09:43:27;9.00;;;2.88;;
69822;SDS011;57119;52.516;13.508;2022-09-09T09:45:52;6.25;;;3.05;;
69822;SDS011;57119;52.516;13.508;2022-09-09T09:48:18;6.57;;;2.87;;
69822;SDS011;57119;52.516;13.508;2022-09-09T09:53:21;6.55;;;2.83;;
69822;SDS011;57119;52.516;13.508;2022-09-09T09:56:02;6.40;;;3.08;;
69822;SDS011;57119;52.516;13.508;2022-09-09T09:58:31;7.72;;;3.22;;
69822;SDS011;57119;52.516;13.508;2022-09-09T10:00:58;6.63;;;2.97;;
69822;SDS011;57119;52.516;13.508;2022-09-09T10:05:57;5.95;;;3.10;;
69822;SDS011;57119;52.516;13.508;2022-09-09T10:08:24;7.68;;;3.30;;
69822;SDS011;57119;52.516;13.508;2022-09-09T10:13:53;5.55;;;3.33;;
69822;SDS011;57119;52.516;13.508;2022-09-09T10:16:49;7.53;;;2.90;;
69822;SDS011;57119;52.516;13.508;2022-09-09T10:19:29;7.23;;;3.10;;
69822;SDS011;57119;52.516;13.508;2022-09-09T10:27:16;7.95;;;3.97;;
69822;SDS011;57119;52.516;13.508;2022-09-09T10:33:23;8.38;;;2.65;;
69822;SDS011;57119;52.516;13.508;2022-09-09T10:43:42;6.70;;;2.40;;
69822;SDS011;57119;52.516;13.508;2022-09-09T10:46:23;6.53;;;2.10;;
69822;SDS011;57119;52.516;13.508;2022-09-09T10:49:23;7.38;;;2.13;;
69822;SDS011;57119;52.516;13.508;2022-09-09T10:51:59;5.95;;;2.25;;
69822;SDS011;57119;52.516;13.508;2022-09-09T10:57:23;6.18;;;2.53;;
69822;SDS011;57119;52.516;13.508;2022-09-09T11:01:07;7.07;;;2.47;;
69822;SDS011;57119;52.516;13.508;2022-09-09T11:03:06;9.07;;;3.10;;
69822;SDS011;57119;52.516;13.508;2022-09-09T11:05:41;6.00;;;2.72;;
69822;SDS011;57119;52.516;13.508;2022-09-09T11:08:10;7.60;;;2.97;;
69822;SDS011;57119;52.516;13.508;2022-09-09T11:10:47;6.90;;;2.73;;
69822;SDS011;57119;52.516;13.508;2022-09-09T11:16:17;6.30;;;3.40;;
69822;SDS011;57119;52.516;13.508;2022-09-09T11:18:44;7.40;;;3.53;;
69822;SDS011;57119;52.516;13.508;2022-09-09T11:21:28;6.50;;;3.42;;
69822;SDS011;57119;52.516;13.508;2022-09-09T11:24:00;6.13;;;3.70;;
69822;SDS011;57119;52.516;13.508;2022-09-09T11:26:31;7.72;;;3.40;;
69822;SDS011;57119;52.516;13.508;2022-09-09T11:29:09;5.97;;;2.90;;
69822;SDS011;57119;52.516;13.508;2022-09-09T11:34:27;5.72;;;1.98;;
69822;SDS011;57119;52.516;13.508;2022-09-09T11:44:38;5.90;;;2.83;;
69822;SDS011;57119;52.516;13.508;2022-09-09T11:47:15;5.63;;;2.53;;
69822;SDS011;57119;52.516;13.508;2022-09-09T11:50:09;6.03;;;2.72;;
69822;SDS011;57119;52.516;13.508;2022-09-09T11:52:43;7.05;;;3.67;;
69822;SDS011;57119;52.516;13.508;2022-09-09T11:58:00;7.47;;;2.95;;
69822;SDS011;57119;52.516;13.508;2022-09-09T12:03:02;6.80;;;2.33;;
69822;SDS011;57119;52.516;13.508;2022-09-09T12:05:40;7.33;;;2.80;;
69822;SDS011;57119;52.516;13.508;2022-09-09T12:08:09;4.70;;;1.33;;
69822;SDS011;57119;52.516;13.508;2022-09-09T12:10:40;7.43;;;2.80;;
69822;SDS011;57119;52.516;13.508;2022-09-09T12:13:22;4.78;;;1.65;;
69822;SDS011;57119;52.516;13.508;2022-09-09T12:15:53;4.83;;;2.40;;
69822;SDS011;57119;52.516;13.508;2022-09-09T12:18:24;5.97;;;2.90;;
69822;SDS011;57119;52.516;13.508;2022-09-09T12:21:21;5.68;;;3.30;;
69822;SDS011;57119;52.516;13.508;2022-09-09T12:23:55;5.45;;;3.40;;
69822;SDS011;57119;52.516;13.508;2022-09-09T12:26:34;7.00;;;3.10;;
69822;SDS011;57119;52.516;13.508;2022-09-09T12:29:14;4.85;;;2.72;;
69822;SDS011;57119;52.516;13.508;2022-09-09T12:37:52;4.47;;;2.08;;
69822;SDS011;57119;52.516;13.508;2022-09-09T12:42:51;5.40;;;1.90;;
69822;SDS011;57119;52.516;13.508;2022-09-09T12:45:21;6.97;;;1.95;;
69822;SDS011;57119;52.516;13.508;2022-09-09T12:47:50;5.85;;;2.00;;
69822;SDS011;57119;52.516;13.508;2022-09-09T12:50:24;4.80;;;1.85;;
69822;SDS011;57119;52.516;13.508;2022-09-09T12:52:53;4.82;;;1.80;;
69822;SDS011;57119;52.516;13.508;2022-09-09T12:55:23;5.13;;;1.60;;
69822;SDS011;57119;52.516;13.508;2022-09-09T12:57:52;4.47;;;1.73;;
69822;SDS011;57119;52.516;13.508;2022-09-09T13:00:22;4.55;;;1.50;;
69822;SDS011;57119;52.516;13.508;2022-09-09T13:02:51;5.40;;;1.98;;
69822;SDS011;57119;52.516;13.508;2022-09-09T13:05:28;6.77;;;2.00;;
69822;SDS011;57119;52.516;13.508;2022-09-09T13:08:01;3.53;;;1.52;;
69822;SDS011;57119;52.516;13.508;2022-09-09T13:10:28;4.57;;;1.15;;
69822;SDS011;57119;52.516;13.508;2022-09-09T13:12:56;6.18;;;1.80;;
69822;SDS011;57119;52.516;13.508;2022-09-09T13:15:23;4.57;;;1.60;;
69822;SDS011;57119;52.516;13.508;2022-09-09T13:17:56;5.70;;;1.50;;
69822;SDS011;57119;52.516;13.508;2022-09-09T13:20:25;4.55;;;1.40;;
69822;SDS011;57119;52.516;13.508;2022-09-09T13:22:52;4.88;;;1.40;;
69822;SDS011;57119;52.516;13.508;2022-09-09T13:25:23;5.47;;;1.50;;
69822;SDS011;57119;52.516;13.508;2022-09-09T13:30:30;6.57;;;1.77;;
69822;SDS011;57119;52.516;13.508;2022-09-09T13:35:46;4.45;;;1.30;;
69822;SDS011;57119;52.516;13.508;2022-09-09T13:38:14;5.22;;;1.75;;
69822;SDS011;57119;52.516;13.508;2022-09-09T13:40:40;4.18;;;1.55;;
69822;SDS011;57119;52.516;13.508;2022-09-09T13:43:10;4.67;;;2.03;;
69822;SDS011;57119;52.516;13.508;2022-09-09T13:45:52;4.77;;;1.80;;
69822;SDS011;57119;52.516;13.508;2022-09-09T13:48:18;4.45;;;1.40;;
69822;SDS011;57119;52.516;13.508;2022-09-09T13:50:53;5.50;;;1.40;;
69822;SDS011;57119;52.516;13.508;2022-09-09T13:53:19;3.43;;;1.70;;
69822;SDS011;57119;52.516;13.508;2022-09-09T13:55:44;5.03;;;2.83;;
69822;SDS011;57119;52.516;13.508;2022-09-09T13:58:14;6.37;;;3.70;;
69822;SDS011;57119;52.516;13.508;2022-09-09T14:00:40;5.80;;;1.80;;
69822;SDS011;57119;52.516;13.508;2022-09-09T14:03:06;5.07;;;1.87;;
69822;SDS011;57119;52.516;13.508;2022-09-09T14:05:32;5.60;;;1.60;;
69822;SDS011;57119;52.516;13.508;2022-09-09T14:07:58;3.65;;;1.02;;
69822;SDS011;57119;52.516;13.508;2022-09-09T14:10:25;6.68;;;1.42;;
69822;SDS011;57119;52.516;13.508;2022-09-09T14:12:50;5.37;;;1.70;;
69822;SDS011;57119;52.516;13.508;2022-09-09T14:15:16;4.87;;;1.20;;
69822;SDS011;57119;52.516;13.508;2022-09-09T14:17:41;5.30;;;1.10;;
69822;SDS011;57119;52.516;13.508;2022-09-09T14:20:07;4.00;;;1.58;;
69822;SDS011;57119;52.516;13.508;2022-09-09T14:22:33;5.85;;;2.15;;
69822;SDS011;57119;52.516;13.508;2022-09-09T14:24:59;4.90;;;1.73;;
69822;SDS011;57119;52.516;13.508;2022-09-09T14:27:24;5.80;;;1.40;;
69822;SDS011;57119;52.516;13.508;2022-09-09T14:29:51;6.18;;;1.95;;
69822;SDS011;57119;52.516;13.508;2022-09-09T14:32:16;5.00;;;1.95;;
69822;SDS011;57119;52.516;13.508;2022-09-09T14:34:42;5.87;;;1.80;;
69822;SDS011;57119;52.516;13.508;2022-09-09T14:37:07;6.03;;;1.57;;
69822;SDS011;57119;52.516;13.508;2022-09-09T14:39:32;9.93;;;1.87;;
69822;SDS011;57119;52.516;13.508;2022-09-09T14:41:58;7.73;;;2.20;;
69822;SDS011;57119;52.516;13.508;2022-09-09T14:44:23;4.50;;;1.67;;
69822;SDS011;57119;52.516;13.508;2022-09-09T14:46:49;7.63;;;3.15;;
69822;SDS011;57119;52.516;13.508;2022-09-09T14:49:15;5.07;;;2.07;;
69822;SDS011;57119;52.516;13.508;2022-09-09T14:51:40;4.97;;;2.85;;
69822;SDS011;57119;52.516;13.508;2022-09-09T14:54:06;5.00;;;2.00;;
69822;SDS011;57119;52.516;13.508;2022-09-09T14:56:31;5.77;;;1.80;;
69822;SDS011;57119;52.516;13.508;2022-09-09T14:58:59;4.75;;;1.30;;
69822;SDS011;57119;52.516;13.508;2022-09-09T15:01:28;4.70;;;1.70;;
69822;SDS011;57119;52.516;13.508;2022-09-09T15:03:56;7.68;;;1.80;;
69822;SDS011;57119;52.516;13.508;2022-09-09T15:06:23;5.93;;;1.60;;
69822;SDS011;57119;52.516;13.508;2022-09-09T15:08:50;4.45;;;1.27;;
69822;SDS011;57119;52.516;13.508;2022-09-09T15:11:17;5.18;;;1.60;;
69822;SDS011;57119;52.516;13.508;2022-09-09T15:13:43;7.03;;;1.60;;
69822;SDS011;57119;52.516;13.508;2022-09-09T15:18:36;4.32;;;1.42;;
69822;SDS011;57119;52.516;13.508;2022-09-09T15:21:05;5.93;;;1.83;;
69822;SDS011;57119;52.516;13.508;2022-09-09T15:23:31;6.20;;;1.63;;
69822;SDS011;57119;52.516;13.508;2022-09-09T15:25:57;5.80;;;2.10;;
69822;SDS011;57119;52.516;13.508;2022-09-09T15:28:23;5.90;;;2.83;;
69822;SDS011;57119;52.516;13.508;2022-09-09T15:30:49;6.30;;;2.93;;
69822;SDS011;57119;52.516;13.508;2022-09-09T15:33:15;5.25;;;2.63;;
69822;SDS011;57119;52.516;13.508;2022-09-09T15:35:40;5.53;;;2.73;;
69822;SDS011;57119;52.516;13.508;2022-09-09T15:38:06;6.35;;;2.33;;
69822;SDS011;57119;52.516;13.508;2022-09-09T15:40:31;4.73;;;1.97;;
69822;SDS011;57119;52.516;13.508;2022-09-09T15:42:59;5.82;;;2.40;;
69822;SDS011;57119;52.516;13.508;2022-09-09T15:45:25;5.70;;;2.03;;
69822;SDS011;57119;52.516;13.508;2022-09-09T15:47:51;6.45;;;2.00;;
69822;SDS011;57119;52.516;13.508;2022-09-09T15:50:17;5.47;;;2.00;;
69822;SDS011;57119;52.516;13.508;2022-09-09T15:52:42;4.83;;;2.07;;
69822;SDS011;57119;52.516;13.508;2022-09-09T15:55:07;5.57;;;2.37;;
69822;SDS011;57119;52.516;13.508;2022-09-09T15:57:33;6.53;;;3.10;;
69822;SDS011;57119;52.516;13.508;2022-09-09T15:59:59;5.43;;;2.60;;
69822;SDS011;57119;52.516;13.508;2022-09-09T16:02:25;5.40;;;2.30;;
69822;SDS011;57119;52.516;13.508;2022-09-09T16:04:50;5.93;;;2.43;;
69822;SDS011;57119;52.516;13.508;2022-09-09T16:07:15;6.90;;;3.37;;
69822;SDS011;57119;52.516;13.508;2022-09-09T16:09:41;7.30;;;3.20;;
69822;SDS011;57119;52.516;13.508;2022-09-09T16:12:08;5.65;;;2.00;;
69822;SDS011;57119;52.516;13.508;2022-09-09T16:14:36;4.10;;;1.40;;
69822;SDS011;57119;52.516;13.508;2022-09-09T16:17:04;5.82;;;1.45;;
69822;SDS011;57119;52.516;13.508;2022-09-09T16:19:31;3.42;;;1.17;;
69822;SDS011;57119;52.516;13.508;2022-09-09T16:21:56;5.13;;;1.67;;
69822;SDS011;57119;52.516;13.508;2022-09-09T16:24:22;4.72;;;1.25;;
69822;SDS011;57119;52.516;13.508;2022-09-09T16:26:52;4.93;;;1.30;;
69822;SDS011;57119;52.516;13.508;2022-09-09T16:29:19;6.07;;;1.73;;